createdAt,value
2023-01-02T00:02:21.519Z,696.73
2023-01-02T00:04:50.621Z,1389.83
2023-01-02T00:07:21.036Z,368.67
2023-01-02T00:09:51.633Z,277.27
2023-01-02T00:12:39.220Z,318.20
2023-01-02T00:15:09.055Z,230.10
2023-01-02T00:17:38.219Z,217.17
2023-01-02T00:20:08.218Z,343.20
2023-01-02T00:22:38.793Z,136.87
2023-01-02T00:25:08.932Z,181.93
2023-01-02T00:27:38.065Z,314.30
2023-01-02T00:30:08.033Z,707.87
2023-01-02T00:32:37.086Z,804.33
2023-01-02T00:35:06.562Z,324.17
2023-01-02T00:37:35.572Z,456.30
2023-01-02T00:40:07.330Z,387.90
2023-01-02T00:42:36.579Z,256.00
2023-01-02T00:45:05.988Z,601.53
2023-01-02T00:47:35.009Z,176.73
2023-01-02T00:50:04.945Z,288.50
2023-01-02T00:52:34.056Z,387.30
2023-01-02T00:55:03.086Z,223.70
2023-01-02T00:57:33.761Z,1204.80
2023-01-02T01:00:24.067Z,1415.17
2023-01-02T01:02:57.977Z,1211.03
2023-01-02T01:05:45.567Z,899.43
2023-01-02T01:08:14.758Z,1083.87
2023-01-02T01:10:43.969Z,1140.47
2023-01-02T01:13:14.444Z,728.70
2023-01-02T01:15:43.509Z,1005.17
2023-01-02T01:18:12.744Z,746.00
2023-01-02T01:20:41.802Z,221.93
2023-01-02T01:23:10.837Z,483.43
2023-01-02T01:25:39.854Z,351.87
2023-01-02T01:28:08.809Z,533.10
2023-01-02T01:30:39.305Z,776.53
2023-01-02T01:33:08.431Z,389.40
2023-01-02T01:35:37.455Z,376.27
2023-01-02T01:38:06.604Z,241.67
2023-01-02T01:40:40.106Z,1180.27
2023-01-02T01:43:15.403Z,856.53
2023-01-02T01:45:46.219Z,509.57
2023-01-02T01:48:18.461Z,424.50
2023-01-02T01:50:48.041Z,1071.33
2023-01-02T01:53:20.394Z,753.33
2023-01-02T01:55:53.206Z,631.10
2023-01-02T01:58:25.727Z,826.47
2023-01-02T02:00:57.327Z,751.00
2023-01-02T02:03:30.477Z,700.10
2023-01-02T02:06:01.175Z,538.17
2023-01-02T02:08:36.755Z,267.87
2023-01-02T02:11:06.114Z,941.13
2023-01-02T02:13:35.853Z,805.73
2023-01-02T02:16:20.623Z,932.37
2023-01-02T02:19:06.586Z,1140.50
2023-01-02T02:22:02.297Z,328.52
2023-01-02T02:24:47.436Z,345.48
2023-01-02T02:27:44.258Z,1204.83
2023-01-02T02:30:17.207Z,302.83
2023-01-02T02:33:02.816Z,715.53
2023-01-02T02:35:42.502Z,273.40
2023-01-02T02:38:18.840Z,222.93
2023-01-02T02:40:58.110Z,160.27
2023-01-02T02:43:38.169Z,404.42
2023-01-02T02:46:14.243Z,165.03
2023-01-02T02:48:53.137Z,279.37
2023-01-02T02:51:27.982Z,317.00
2023-01-02T02:54:01.320Z,456.77
2023-01-02T02:56:31.393Z,1168.32
2023-01-02T02:59:01.137Z,396.17
2023-01-02T03:01:32.464Z,707.20
2023-01-02T03:04:01.703Z,263.13
2023-01-02T03:06:43.459Z,656.00
2023-01-02T03:09:20.641Z,1012.63
2023-01-02T03:11:56.571Z,477.40
2023-01-02T03:14:33.424Z,1360.27
2023-01-02T03:17:11.223Z,265.63
2023-01-02T03:19:45.227Z,739.73
2023-01-02T03:22:18.773Z,783.15
2023-01-02T03:24:51.877Z,221.20
2023-01-02T03:27:24.458Z,603.03
2023-01-02T03:29:59.056Z,332.13
2023-01-02T03:32:32.409Z,651.73
2023-01-02T03:35:04.452Z,179.27
2023-01-02T03:37:36.322Z,169.27
2023-01-02T03:40:11.593Z,289.58
2023-01-02T03:42:45.887Z,156.60
2023-01-02T03:45:19.941Z,278.73
2023-01-02T03:47:57.926Z,189.43
2023-01-02T03:50:31.378Z,228.47
2023-01-02T03:53:01.155Z,455.25
2023-01-02T03:55:33.300Z,318.13
2023-01-02T03:58:09.787Z,1150.63
2023-01-02T04:00:44.685Z,622.60
2023-01-02T04:03:21.367Z,1106.60
2023-01-02T04:05:54.430Z,799.42
2023-01-02T04:08:27.588Z,943.33
2023-01-02T04:11:00.157Z,789.20
2023-01-02T04:13:34.006Z,309.90
2023-01-02T04:16:05.260Z,566.67
2023-01-02T04:18:44.640Z,237.05
2023-01-02T04:21:20.481Z,938.08
2023-01-02T04:23:54.083Z,936.80
2023-01-02T04:26:29.121Z,336.35
2023-01-02T04:28:58.652Z,282.75
2023-01-02T04:31:34.263Z,766.53
2023-01-02T04:34:06.252Z,603.00
2023-01-02T04:36:40.116Z,181.52
2023-01-02T04:39:09.311Z,232.82
2023-01-02T04:41:40.739Z,485.13
2023-01-02T04:44:09.774Z,677.55
2023-01-02T04:46:38.852Z,958.78
2023-01-02T04:49:10.075Z,604.53
2023-01-02T04:51:57.665Z,853.72
2023-01-02T04:54:26.716Z,319.20
2023-01-02T04:56:55.885Z,794.35
2023-01-02T04:59:24.846Z,1022.25
2023-01-02T05:01:54.227Z,807.70
2023-01-02T05:04:25.052Z,332.73
2023-01-02T05:06:54.319Z,1088.25
2023-01-02T05:09:23.296Z,1067.38
2023-01-02T05:11:52.251Z,736.58
2023-01-02T05:14:21.385Z,717.85
2023-01-02T05:16:50.323Z,738.78
2023-01-02T05:19:19.460Z,651.00
2023-01-02T05:22:07.304Z,834.58
2023-01-02T05:24:36.542Z,1062.07
2023-01-02T05:27:05.716Z,1063.40
2023-01-02T05:29:34.697Z,321.60
2023-01-02T05:32:03.561Z,522.60
2023-01-02T05:34:32.645Z,277.35
2023-01-02T05:37:03.923Z,346.25
2023-01-02T05:39:33.080Z,461.75
2023-01-02T05:42:02.138Z,563.92
2023-01-02T05:44:32.366Z,316.13
2023-01-02T05:47:01.413Z,415.23
2023-01-02T05:49:30.511Z,290.55
2023-01-02T05:51:59.710Z,174.43
2023-01-02T05:54:30.224Z,190.30
2023-01-02T05:56:59.294Z,355.90
2023-01-02T05:59:28.322Z,206.05
2023-01-02T06:01:57.527Z,187.75
2023-01-02T06:04:26.894Z,226.90
2023-01-02T06:06:55.980Z,162.95
2023-01-02T06:09:25.001Z,170.18
2023-01-02T06:11:55.473Z,135.10
2023-01-02T06:14:25.334Z,106.47
2023-01-02T06:16:54.421Z,100.38
2023-01-02T06:19:23.368Z,91.13
2023-01-02T06:21:52.501Z,89.10
2023-01-02T06:24:21.581Z,99.90
2023-01-02T06:26:50.677Z,108.05
2023-01-02T06:29:21.107Z,157.18
2023-01-02T06:31:51.869Z,180.63
2023-01-02T06:34:22.824Z,150.57
2023-01-02T06:36:51.980Z,187.48
2023-01-02T06:39:21.131Z,188.18
2023-01-02T06:41:50.197Z,187.38
2023-01-02T06:44:20.734Z,138.25
2023-01-02T06:46:49.850Z,131.55
2023-01-02T06:49:18.809Z,199.38
2023-01-02T06:51:47.758Z,255.13
2023-01-02T06:54:16.734Z,145.93
2023-01-02T06:56:45.680Z,145.50
2023-01-02T06:59:15.914Z,121.57
2023-01-02T07:01:46.680Z,108.00
2023-01-02T07:04:17.616Z,115.83
2023-01-02T07:06:46.771Z,123.43
2023-01-02T07:09:15.906Z,120.13
2023-01-02T07:11:45.038Z,125.83
2023-01-02T07:14:14.154Z,163.47
2023-01-02T07:16:43.064Z,239.40
2023-01-02T07:19:13.606Z,203.60
2023-01-02T07:21:43.387Z,186.97
2023-01-02T07:24:15.607Z,172.43
2023-01-02T07:26:44.718Z,154.93
2023-01-02T07:29:14.605Z,145.00
2023-01-02T07:31:43.673Z,113.50
2023-01-02T07:34:14.226Z,112.13
2023-01-02T07:36:43.219Z,106.43
2023-01-02T07:39:12.480Z,96.57
2023-01-02T07:41:41.752Z,99.33
2023-01-02T07:44:16.046Z,81.67
2023-01-02T07:46:45.117Z,88.70
2023-01-02T07:49:15.793Z,75.97
2023-01-02T07:51:44.860Z,80.17
2023-01-02T07:54:13.771Z,87.53
2023-01-02T07:56:42.817Z,94.40
2023-01-02T07:59:12.213Z,100.13
2023-01-02T08:01:41.278Z,85.33
2023-01-02T08:04:10.449Z,67.47
2023-01-02T08:06:42.931Z,71.20
2023-01-02T08:09:12.168Z,78.97
2023-01-02T08:11:41.240Z,72.23
2023-01-02T08:14:10.581Z,102.13
2023-01-02T08:16:39.854Z,85.23
2023-01-02T08:19:09.025Z,81.60
2023-01-02T08:21:38.170Z,88.50
2023-01-02T08:24:09.281Z,92.30
2023-01-02T08:26:38.615Z,87.97
2023-01-02T08:29:09.365Z,99.07
2023-01-02T08:31:43.712Z,89.00
2023-01-02T08:34:16.110Z,93.37
2023-01-02T08:36:46.711Z,93.10
2023-01-02T08:39:17.188Z,89.47
2023-01-02T08:41:46.319Z,84.90
2023-01-02T08:44:16.384Z,79.13
2023-01-02T08:46:45.685Z,82.43
2023-01-02T08:49:14.912Z,70.63
2023-01-02T08:51:43.968Z,82.50
2023-01-02T08:54:12.970Z,39.47
2023-01-02T08:56:43.952Z,34.87
2023-01-02T08:59:14.101Z,46.03
2023-01-02T09:01:43.668Z,46.03
2023-01-02T09:04:13.454Z,34.30
2023-01-02T09:06:44.110Z,52.80
2023-01-02T09:09:14.589Z,46.37
2023-01-02T09:11:50.570Z,34.60
2023-01-02T09:14:38.742Z,51.87
2023-01-02T09:17:07.844Z,37.50
2023-01-02T09:19:37.118Z,32.10
2023-01-02T09:22:06.774Z,24.33
2023-01-02T09:24:35.895Z,25.43
2023-01-02T09:27:06.581Z,24.63
2023-01-02T09:29:35.819Z,26.20
2023-01-02T09:32:05.270Z,30.23
2023-01-02T09:34:52.973Z,26.43
2023-01-02T09:37:22.111Z,39.87
2023-01-02T09:39:50.931Z,28.47
2023-01-02T09:42:21.564Z,30.40
2023-01-02T09:44:54.212Z,23.67
2023-01-02T09:47:27.056Z,28.43
2023-01-02T09:49:58.955Z,30.10
2023-01-02T09:52:31.632Z,33.20
2023-01-02T09:55:01.053Z,40.90
2023-01-02T09:57:41.618Z,36.07
2023-01-02T10:00:18.855Z,32.97
2023-01-02T10:03:08.713Z,33.70
2023-01-02T10:06:09.667Z,29.10
2023-01-02T10:08:48.319Z,27.57
2023-01-02T10:11:28.584Z,28.00
2023-01-02T10:14:18.620Z,41.37
2023-01-02T10:16:52.310Z,46.33
2023-01-02T10:19:27.483Z,39.37
2023-01-02T10:22:20.792Z,37.60
2023-01-02T10:24:56.524Z,34.33
2023-01-02T10:27:31.507Z,24.63
2023-01-02T10:30:09.596Z,31.60
2023-01-02T10:32:42.238Z,40.23
2023-01-02T10:35:19.825Z,26.73
2023-01-02T10:37:49.599Z,26.37
2023-01-02T10:40:37.740Z,24.23
2023-01-02T10:43:06.707Z,24.50
2023-01-02T10:45:37.410Z,26.87
2023-01-02T10:48:07.761Z,27.20
2023-01-02T10:50:42.269Z,26.90
2023-01-02T10:53:21.162Z,37.83
2023-01-02T10:55:50.769Z,27.00
2023-01-02T10:58:23.470Z,56.00
2023-01-02T11:01:06.505Z,40.07
2023-01-02T11:03:36.078Z,32.50
2023-01-02T11:06:25.771Z,36.13
2023-01-02T11:08:59.727Z,41.80
2023-01-02T11:11:30.562Z,28.33
2023-01-02T11:14:08.380Z,67.73
2023-01-02T11:16:42.241Z,85.53
2023-01-02T11:19:27.403Z,41.80
2023-01-02T11:21:59.597Z,39.30
2023-01-02T11:24:28.848Z,38.27
2023-01-02T11:27:02.110Z,83.13
2023-01-02T11:29:33.843Z,58.67
2023-01-02T11:32:05.598Z,27.53
2023-01-02T11:34:37.763Z,35.00
2023-01-02T11:37:15.872Z,53.03
2023-01-02T11:39:58.116Z,28.13
2023-01-02T11:42:51.555Z,36.57
2023-01-02T11:45:21.438Z,22.40
2023-01-02T11:47:54.247Z,25.10
2023-01-02T11:50:25.905Z,24.20
2023-01-02T11:53:07.959Z,31.20
2023-01-02T11:55:45.721Z,23.07
2023-01-02T11:58:21.265Z,17.87
2023-01-02T12:00:54.656Z,22.27
2023-01-02T12:03:28.247Z,42.47
2023-01-02T12:06:10.387Z,43.73
2023-01-02T12:08:51.956Z,24.67
2023-01-02T12:11:34.863Z,21.43
2023-01-02T12:14:14.586Z,27.67
2023-01-02T12:16:52.734Z,28.13
2023-01-02T12:20:05.055Z,23.73
2023-01-02T12:22:57.741Z,27.43
2023-01-02T12:25:41.134Z,26.00
2023-01-02T12:28:32.670Z,22.80
2023-01-02T12:31:15.728Z,25.70
2023-01-02T12:33:54.911Z,23.50
2023-01-02T12:36:43.103Z,18.17
2023-01-02T12:39:39.646Z,18.27
2023-01-02T12:42:22.318Z,19.53
2023-01-02T12:44:54.140Z,18.30
2023-01-02T12:47:40.845Z,30.57
2023-01-02T12:50:33.541Z,24.60
2023-01-02T12:53:21.092Z,23.67
2023-01-02T12:56:01.294Z,24.20
2023-01-02T12:58:42.688Z,23.13
2023-01-02T13:01:20.862Z,33.00
2023-01-02T13:04:03.812Z,23.47
2023-01-02T13:06:47.052Z,21.93
2023-01-02T13:09:23.695Z,42.63
2023-01-02T13:12:00.285Z,37.47
2023-01-02T13:14:36.928Z,29.90
2023-01-02T13:17:31.275Z,23.97
2023-01-02T13:20:05.936Z,29.87
2023-01-02T13:22:41.816Z,29.47
2023-01-02T13:25:16.415Z,27.17
2023-01-02T13:27:48.217Z,25.77
2023-01-02T13:30:38.528Z,38.93
2023-01-02T13:33:24.469Z,58.27
2023-01-02T13:35:53.817Z,32.17
2023-01-02T13:38:28.598Z,46.10
2023-01-02T13:41:00.850Z,52.00
2023-01-02T13:43:34.641Z,45.70
2023-01-02T13:46:03.906Z,35.40
2023-01-02T13:48:36.999Z,48.47
2023-01-02T13:51:08.177Z,61.57
2023-01-02T13:53:42.775Z,86.40
2023-01-02T13:56:14.289Z,55.00
2023-01-02T13:58:48.223Z,63.70
2023-01-02T14:01:42.454Z,40.00
2023-01-02T14:04:36.091Z,35.07
2023-01-02T14:07:38.426Z,36.37
2023-01-02T14:10:32.701Z,35.10
2023-01-02T14:13:08.615Z,37.57
2023-01-02T14:16:12.452Z,53.67
2023-01-02T14:18:46.276Z,41.03
2023-01-02T14:21:19.501Z,38.43
2023-01-02T14:24:17.380Z,46.90
2023-01-02T14:26:43.192Z,51.90
2023-01-02T14:29:17.076Z,63.00
2023-01-02T14:32:08.939Z,90.00
2023-01-02T14:34:45.845Z,87.40
2023-01-02T14:37:35.820Z,88.17
2023-01-02T14:40:37.771Z,95.33
2023-01-02T14:43:31.271Z,111.37
2023-01-02T14:46:08.518Z,125.50
2023-01-02T14:48:46.740Z,115.27
2023-01-02T14:51:22.500Z,166.60
2023-01-02T14:53:55.164Z,170.47
2023-01-02T14:56:28.534Z,186.40
2023-01-02T14:58:59.135Z,215.00
2023-01-02T15:01:42.239Z,538.20
2023-01-02T15:04:22.880Z,280.37
2023-01-02T15:07:06.129Z,299.53
2023-01-02T15:09:43.165Z,269.27
2023-01-02T15:12:41.604Z,277.70
2023-01-02T15:15:13.361Z,261.10
2023-01-02T15:17:43.163Z,304.77
2023-01-02T15:20:20.682Z,105.40
2023-01-02T15:22:50.270Z,195.30
2023-01-02T15:25:33.145Z,162.40
2023-01-02T15:28:02.477Z,189.17
2023-01-02T15:30:34.992Z,243.57
2023-01-02T15:33:04.496Z,219.47
2023-01-02T15:35:36.512Z,243.53
2023-01-02T15:38:25.095Z,211.87
2023-01-02T15:40:57.474Z,172.80
2023-01-02T15:43:46.725Z,178.77
2023-01-02T15:46:17.016Z,166.07
2023-01-02T15:48:46.730Z,172.40
2023-01-02T15:51:19.438Z,202.30
2023-01-02T15:53:51.442Z,200.63
2023-01-02T15:56:34.167Z,182.83
2023-01-02T15:59:03.696Z,162.33
2023-01-02T16:01:33.142Z,157.63
2023-01-02T16:04:06.423Z,173.00
2023-01-02T16:06:40.639Z,167.47
2023-01-02T16:09:19.778Z,158.97
2023-01-02T16:11:52.428Z,173.03
2023-01-02T16:14:25.685Z,194.07
2023-01-02T16:17:02.116Z,197.60
2023-01-02T16:19:36.105Z,185.53
2023-01-02T16:22:17.459Z,178.10
2023-01-02T16:24:49.591Z,160.07
2023-01-02T16:27:26.882Z,175.70
2023-01-02T16:29:56.782Z,167.30
2023-01-02T16:32:28.444Z,142.73
2023-01-02T16:35:17.678Z,145.73
2023-01-02T16:37:54.581Z,131.03
2023-01-02T16:41:02.967Z,148.37
2023-01-02T16:43:41.079Z,133.00
2023-01-02T16:46:31.559Z,132.70
2023-01-02T16:49:05.215Z,130.10
2023-01-02T16:51:55.248Z,139.83
2023-01-02T16:54:25.570Z,135.30
2023-01-02T16:56:54.591Z,135.63
2023-01-02T16:59:23.716Z,142.70
2023-01-02T17:01:53.491Z,135.60
2023-01-02T17:04:22.651Z,145.20
2023-01-02T17:06:51.755Z,143.17
2023-01-02T17:09:20.830Z,157.90
2023-01-02T17:12:01.284Z,155.63
2023-01-02T17:14:49.007Z,98.47
2023-01-02T17:17:18.199Z,117.67
2023-01-02T17:19:47.604Z,100.53
2023-01-02T17:22:16.562Z,99.93
2023-01-02T17:24:45.660Z,108.30
2023-01-02T17:27:16.385Z,127.93
2023-01-02T17:29:45.625Z,115.60
2023-01-02T17:32:14.629Z,120.30
2023-01-02T17:34:43.697Z,140.43
2023-01-02T17:37:12.972Z,146.23
2023-01-02T17:39:42.330Z,162.77
2023-01-02T17:42:11.682Z,140.73
2023-01-02T17:44:42.388Z,130.43
2023-01-02T17:47:39.256Z,157.50
2023-01-02T17:50:00.654Z,152.63
2023-01-02T17:52:30.061Z,156.53
2023-01-02T17:54:59.044Z,160.07
2023-01-02T17:57:28.255Z,145.37
2023-01-02T17:59:59.179Z,152.03
2023-01-02T18:02:28.354Z,214.63
2023-01-02T18:04:57.499Z,177.80
2023-01-02T18:07:26.494Z,203.83
2023-01-02T18:10:08.098Z,193.57
2023-01-02T18:12:38.634Z,196.63
2023-01-02T18:15:15.717Z,221.70
2023-01-02T18:17:45.069Z,198.77
2023-01-02T18:20:16.022Z,224.73
2023-01-02T18:22:49.417Z,208.73
2023-01-02T18:25:24.715Z,187.43
2023-01-02T18:27:57.371Z,174.43
2023-01-02T18:30:28.781Z,180.10
2023-01-02T18:33:04.146Z,174.63
2023-01-02T18:38:30.510Z,145.57
2023-01-02T18:40:59.881Z,139.07
2023-01-02T18:43:49.796Z,143.07
2023-01-02T18:46:24.903Z,148.20
2023-01-02T18:49:19.505Z,129.23
2023-01-02T18:51:48.755Z,149.50
2023-01-02T18:54:25.805Z,155.90
2023-01-02T18:56:54.919Z,142.50
2023-01-02T18:59:30.740Z,156.57
2023-01-02T19:02:31.358Z,142.37
2023-01-02T19:05:00.756Z,159.80
2023-01-02T19:07:32.385Z,168.70
2023-01-02T19:10:36.643Z,150.83
2023-01-02T19:13:08.283Z,157.07
2023-01-02T19:15:42.229Z,158.73
2023-01-02T19:18:35.655Z,136.90
2023-01-02T19:21:14.577Z,140.43
2023-01-02T19:23:48.298Z,143.30
2023-01-02T19:26:25.330Z,141.93
2023-01-02T19:29:02.893Z,134.83
2023-01-02T19:31:42.158Z,132.20
2023-01-02T19:34:41.500Z,135.87
2023-01-02T19:37:39.478Z,133.63
2023-01-02T19:40:19.123Z,142.33
2023-01-02T19:42:49.570Z,154.23
2023-01-02T19:45:20.239Z,145.83
2023-01-02T19:47:49.996Z,151.30
2023-01-02T19:50:22.884Z,157.07
2023-01-02T19:52:52.076Z,148.50
2023-01-02T19:55:21.475Z,137.63
2023-01-02T19:57:50.599Z,150.43
2023-01-02T20:00:20.723Z,124.63
2023-01-02T20:02:51.914Z,121.33
2023-01-02T20:05:23.423Z,118.40
2023-01-02T20:07:53.682Z,123.77
2023-01-02T20:10:23.373Z,132.90
2023-01-02T20:12:52.278Z,123.83
2023-01-02T20:15:24.355Z,150.67
2023-01-02T20:17:54.470Z,168.43
2023-01-02T20:20:26.886Z,208.03
2023-01-02T20:22:56.094Z,179.30
2023-01-02T20:25:26.754Z,175.33
2023-01-02T20:27:56.708Z,169.77
2023-01-02T20:30:26.624Z,173.20
2023-01-02T20:32:56.655Z,184.43
2023-01-02T20:35:27.050Z,175.40
2023-01-02T20:37:56.121Z,181.37
2023-01-02T20:40:25.385Z,214.27
2023-01-02T20:42:54.529Z,221.87
2023-01-02T20:45:23.754Z,230.63
2023-01-02T20:47:52.687Z,230.47
2023-01-02T20:50:21.773Z,231.27
2023-01-02T20:52:56.865Z,257.87
2023-01-02T20:55:26.534Z,266.57
2023-01-02T20:57:55.752Z,263.77
2023-01-02T21:00:24.881Z,273.40
2023-01-02T21:02:54.097Z,285.80
2023-01-02T21:05:23.253Z,293.33
2023-01-02T21:07:53.988Z,289.70
2023-01-02T21:10:23.119Z,253.13
2023-01-02T21:13:11.091Z,240.37
2023-01-02T21:15:45.392Z,237.57
2023-01-02T21:18:18.188Z,221.93
2023-01-02T21:20:48.507Z,238.02
2023-01-02T21:23:20.423Z,257.17
2023-01-02T21:25:50.333Z,242.13
2023-01-02T21:28:38.689Z,233.32
2023-01-02T21:31:08.222Z,258.57
2023-01-02T21:33:37.550Z,255.37
2023-01-02T21:36:08.965Z,238.80
2023-01-02T21:38:40.225Z,253.60
2023-01-02T21:41:44.882Z,259.03
2023-01-02T21:44:13.936Z,293.93
2023-01-02T21:46:43.203Z,287.05
2023-01-02T21:49:12.225Z,295.97
2023-01-02T21:51:41.241Z,307.05
2023-01-02T21:54:11.857Z,321.87
2023-01-02T21:56:41.283Z,287.27
2023-01-02T21:59:10.497Z,274.07
2023-01-02T22:01:39.751Z,266.98
2023-01-02T22:04:09.075Z,270.70
2023-01-02T22:06:50.332Z,276.27
2023-01-02T22:09:28.509Z,252.02
2023-01-02T22:11:57.593Z,269.60
2023-01-02T22:14:28.923Z,266.55
2023-01-02T22:16:59.493Z,256.90
2023-01-02T22:19:29.909Z,239.20
2023-01-02T22:21:59.380Z,244.82
2023-01-02T22:24:30.241Z,234.73
2023-01-02T22:27:04.020Z,211.63
2023-01-02T22:30:09.703Z,215.13
2023-01-02T22:32:23.713Z,225.45
2023-01-02T22:34:53.466Z,217.70
2023-01-02T22:37:23.178Z,220.85
2023-01-02T22:39:53.732Z,197.10
2023-01-02T22:45:38.583Z,196.20
2023-01-02T22:48:17.864Z,196.48
2023-01-02T22:52:05.901Z,190.77
2023-01-02T22:54:48.147Z,196.30
2023-01-02T22:57:19.584Z,183.77
2023-01-02T22:59:48.721Z,187.68
2023-01-02T23:02:19.858Z,192.65
2023-01-02T23:04:49.166Z,180.32
2023-01-02T23:07:24.211Z,169.95
2023-01-02T23:09:53.876Z,147.20
2023-01-02T23:12:24.355Z,132.38
2023-01-02T23:14:53.189Z,120.90
2023-01-02T23:17:39.355Z,125.05
2023-01-02T23:20:09.581Z,137.68
2023-01-02T23:22:38.730Z,130.50
2023-01-02T23:25:08.750Z,138.98
2023-01-02T23:27:57.726Z,145.95
2023-01-02T23:30:26.798Z,135.73
2023-01-02T23:32:55.819Z,132.52
2023-01-02T23:35:24.882Z,136.45
2023-01-02T23:37:54.026Z,131.43
2023-01-02T23:40:23.104Z,130.98
2023-01-02T23:42:52.110Z,126.10
2023-01-02T23:45:22.821Z,137.68
2023-01-02T23:47:51.977Z,151.77
2023-01-02T23:50:21.015Z,169.40
2023-01-02T23:52:49.998Z,172.93
2023-01-02T23:55:19.372Z,174.70
2023-01-02T23:57:48.462Z,160.77
